Buckeye, Texas
Current Conditions -  °F | °C
As of 2:53 PM on Tuesday 21 Oct 2014 (Local Time) from KLBX Reporting Station
Clear Clear  
Wind Chill: 27°   Ceiling: Unl
Heat Index: 27°   Visibility: 10mi
Dew Point: 14°   Wind: 10mph
Humidity: 47%   Direction: 70°ENE
Pressure: 29.98"   Gusts: 17mph
Location:  28.8997°N, 95.7887°W
Report Text: KLBX 211953Z AUTO 07009G15KT 10SM CLR 27/14 A2998 RMK AO2 SLP152 T02670144
Loading
Personal Weather Stations






























Interactive Weather Map
Tropical Storm Tracking
New forecast layout! Learn more

10-Day Weather Forecast

Advertisements
Track Severe Weather on mobile